sensor_id;sensor_type;location;lat;lon;timestamp;P1;durP1;ratioP1;P2;durP2;ratioP2
27899;SDS011;15243;50.726;7.080;2023-04-27T00:00:16;14.85;;;6.35;;
27899;SDS011;15243;50.726;7.080;2023-04-27T00:02:44;13.07;;;5.43;;
27899;SDS011;15243;50.726;7.080;2023-04-27T00:05:12;11.30;;;6.20;;
27899;SDS011;15243;50.726;7.080;2023-04-27T00:07:39;10.88;;;5.80;;
27899;SDS011;15243;50.726;7.080;2023-04-27T00:10:07;20.40;;;6.57;;
27899;SDS011;15243;50.726;7.080;2023-04-27T00:12:34;13.30;;;6.28;;
27899;SDS011;15243;50.726;7.080;2023-04-27T00:15:01;10.82;;;6.07;;
27899;SDS011;15243;50.726;7.080;2023-04-27T00:17:28;9.38;;;5.55;;
27899;SDS011;15243;50.726;7.080;2023-04-27T00:19:55;13.60;;;6.30;;
27899;SDS011;15243;50.726;7.080;2023-04-27T00:22:22;15.13;;;6.68;;
27899;SDS011;15243;50.726;7.080;2023-04-27T00:24:49;14.95;;;6.72;;
27899;SDS011;15243;50.726;7.080;2023-04-27T00:27:16;11.30;;;6.22;;
27899;SDS011;15243;50.726;7.080;2023-04-27T00:29:43;16.98;;;7.20;;
27899;SDS011;15243;50.726;7.080;2023-04-27T00:32:10;15.52;;;6.43;;
27899;SDS011;15243;50.726;7.080;2023-04-27T00:34:37;12.02;;;6.30;;
27899;SDS011;15243;50.726;7.080;2023-04-27T00:37:06;12.93;;;6.35;;
27899;SDS011;15243;50.726;7.080;2023-04-27T00:39:33;17.45;;;6.07;;
27899;SDS011;15243;50.726;7.080;2023-04-27T00:42:01;13.05;;;5.63;;
27899;SDS011;15243;50.726;7.080;2023-04-27T00:44:28;12.48;;;6.40;;
27899;SDS011;15243;50.726;7.080;2023-04-27T00:46:55;11.40;;;5.85;;
27899;SDS011;15243;50.726;7.080;2023-04-27T00:49:24;12.45;;;6.10;;
27899;SDS011;15243;50.726;7.080;2023-04-27T00:51:52;9.80;;;5.88;;
27899;SDS011;15243;50.726;7.080;2023-04-27T00:54:21;12.93;;;6.65;;
27899;SDS011;15243;50.726;7.080;2023-04-27T00:56:48;11.73;;;6.95;;
27899;SDS011;15243;50.726;7.080;2023-04-27T00:59:17;11.07;;;6.28;;
27899;SDS011;15243;50.726;7.080;2023-04-27T01:01:45;19.77;;;6.50;;
27899;SDS011;15243;50.726;7.080;2023-04-27T01:04:13;9.25;;;6.55;;
27899;SDS011;15243;50.726;7.080;2023-04-27T01:06:40;10.57;;;6.40;;
27899;SDS011;15243;50.726;7.080;2023-04-27T01:09:07;12.85;;;7.22;;
27899;SDS011;15243;50.726;7.080;2023-04-27T01:11:35;9.52;;;5.22;;
27899;SDS011;15243;50.726;7.080;2023-04-27T01:14:03;9.32;;;6.07;;
27899;SDS011;15243;50.726;7.080;2023-04-27T01:16:34;14.00;;;5.03;;
27899;SDS011;15243;50.726;7.080;2023-04-27T01:19:02;10.02;;;6.07;;
27899;SDS011;15243;50.726;7.080;2023-04-27T01:21:30;12.30;;;5.93;;
27899;SDS011;15243;50.726;7.080;2023-04-27T01:23:59;9.20;;;5.60;;
27899;SDS011;15243;50.726;7.080;2023-04-27T01:26:26;11.50;;;6.32;;
27899;SDS011;15243;50.726;7.080;2023-04-27T01:28:53;8.32;;;5.53;;
27899;SDS011;15243;50.726;7.080;2023-04-27T01:31:23;9.85;;;6.43;;
27899;SDS011;15243;50.726;7.080;2023-04-27T01:33:50;10.73;;;5.40;;
27899;SDS011;15243;50.726;7.080;2023-04-27T01:36:17;11.00;;;6.07;;
27899;SDS011;15243;50.726;7.080;2023-04-27T01:38:44;10.00;;;6.00;;
27899;SDS011;15243;50.726;7.080;2023-04-27T01:41:11;16.05;;;5.90;;
27899;SDS011;15243;50.726;7.080;2023-04-27T01:43:38;14.15;;;6.57;;
27899;SDS011;15243;50.726;7.080;2023-04-27T01:46:12;12.02;;;6.03;;
27899;SDS011;15243;50.726;7.080;2023-04-27T01:48:40;12.30;;;5.88;;
27899;SDS011;15243;50.726;7.080;2023-04-27T01:51:07;11.13;;;5.95;;
27899;SDS011;15243;50.726;7.080;2023-04-27T01:53:34;11.48;;;5.97;;
27899;SDS011;15243;50.726;7.080;2023-04-27T01:56:02;16.02;;;6.55;;
27899;SDS011;15243;50.726;7.080;2023-04-27T01:58:28;13.68;;;7.05;;
27899;SDS011;15243;50.726;7.080;2023-04-27T02:00:56;14.05;;;6.57;;
27899;SDS011;15243;50.726;7.080;2023-04-27T02:03:23;9.82;;;5.93;;
27899;SDS011;15243;50.726;7.080;2023-04-27T02:05:50;14.02;;;6.78;;
27899;SDS011;15243;50.726;7.080;2023-04-27T02:08:17;15.35;;;6.63;;
27899;SDS011;15243;50.726;7.080;2023-04-27T02:10:44;9.98;;;6.82;;
27899;SDS011;15243;50.726;7.080;2023-04-27T02:13:11;14.52;;;7.30;;
27899;SDS011;15243;50.726;7.080;2023-04-27T02:15:38;15.38;;;7.00;;
27899;SDS011;15243;50.726;7.080;2023-04-27T02:18:05;10.75;;;7.28;;
27899;SDS011;15243;50.726;7.080;2023-04-27T02:20:33;14.90;;;6.47;;
27899;SDS011;15243;50.726;7.080;2023-04-27T02:22:59;12.23;;;7.07;;
27899;SDS011;15243;50.726;7.080;2023-04-27T02:25:27;13.48;;;6.78;;
27899;SDS011;15243;50.726;7.080;2023-04-27T02:27:55;16.67;;;7.43;;
27899;SDS011;15243;50.726;7.080;2023-04-27T02:30:22;19.25;;;6.85;;
27899;SDS011;15243;50.726;7.080;2023-04-27T02:32:50;10.82;;;6.20;;
27899;SDS011;15243;50.726;7.080;2023-04-27T02:35:17;14.73;;;6.70;;
27899;SDS011;15243;50.726;7.080;2023-04-27T02:37:44;14.43;;;6.80;;
27899;SDS011;15243;50.726;7.080;2023-04-27T02:40:12;12.93;;;6.80;;
27899;SDS011;15243;50.726;7.080;2023-04-27T02:42:39;14.48;;;6.55;;
27899;SDS011;15243;50.726;7.080;2023-04-27T02:45:06;13.82;;;6.50;;
27899;SDS011;15243;50.726;7.080;2023-04-27T02:47:33;16.73;;;6.68;;
27899;SDS011;15243;50.726;7.080;2023-04-27T02:50:01;13.45;;;7.18;;
27899;SDS011;15243;50.726;7.080;2023-04-27T02:52:28;17.98;;;6.80;;
27899;SDS011;15243;50.726;7.080;2023-04-27T02:54:55;14.25;;;6.93;;
27899;SDS011;15243;50.726;7.080;2023-04-27T02:57:22;10.98;;;6.80;;
27899;SDS011;15243;50.726;7.080;2023-04-27T02:59:49;13.77;;;7.13;;
27899;SDS011;15243;50.726;7.080;2023-04-27T03:02:16;12.10;;;6.65;;
27899;SDS011;15243;50.726;7.080;2023-04-27T03:04:43;10.57;;;7.25;;
27899;SDS011;15243;50.726;7.080;2023-04-27T03:07:11;14.13;;;7.32;;
27899;SDS011;15243;50.726;7.080;2023-04-27T03:09:38;12.65;;;7.35;;
27899;SDS011;15243;50.726;7.080;2023-04-27T03:12:05;14.45;;;7.65;;
27899;SDS011;15243;50.726;7.080;2023-04-27T03:14:32;14.95;;;7.03;;
27899;SDS011;15243;50.726;7.080;2023-04-27T03:16:59;18.08;;;7.85;;
27899;SDS011;15243;50.726;7.080;2023-04-27T03:19:26;11.02;;;7.10;;
27899;SDS011;15243;50.726;7.080;2023-04-27T03:21:53;13.23;;;6.80;;
27899;SDS011;15243;50.726;7.080;2023-04-27T03:24:20;16.02;;;8.13;;
27899;SDS011;15243;50.726;7.080;2023-04-27T03:26:47;9.57;;;6.53;;
27899;SDS011;15243;50.726;7.080;2023-04-27T03:29:14;12.48;;;7.22;;
27899;SDS011;15243;50.726;7.080;2023-04-27T03:31:41;12.52;;;7.43;;
27899;SDS011;15243;50.726;7.080;2023-04-27T03:34:08;17.55;;;7.82;;
27899;SDS011;15243;50.726;7.080;2023-04-27T03:36:35;16.52;;;7.90;;
27899;SDS011;15243;50.726;7.080;2023-04-27T03:39:02;19.60;;;7.72;;
27899;SDS011;15243;50.726;7.080;2023-04-27T03:41:29;14.82;;;7.82;;
27899;SDS011;15243;50.726;7.080;2023-04-27T03:43:56;14.77;;;8.00;;
27899;SDS011;15243;50.726;7.080;2023-04-27T03:46:23;12.65;;;7.95;;
27899;SDS011;15243;50.726;7.080;2023-04-27T03:48:50;13.50;;;7.53;;
27899;SDS011;15243;50.726;7.080;2023-04-27T03:51:17;13.85;;;7.78;;
27899;SDS011;15243;50.726;7.080;2023-04-27T03:53:44;12.15;;;7.68;;
27899;SDS011;15243;50.726;7.080;2023-04-27T03:56:11;18.45;;;8.43;;
27899;SDS011;15243;50.726;7.080;2023-04-27T03:58:38;13.18;;;7.90;;
27899;SDS011;15243;50.726;7.080;2023-04-27T04:01:05;15.70;;;8.98;;
27899;SDS011;15243;50.726;7.080;2023-04-27T04:03:32;16.42;;;8.80;;
27899;SDS011;15243;50.726;7.080;2023-04-27T04:05:59;15.23;;;8.52;;
27899;SDS011;15243;50.726;7.080;2023-04-27T04:08:26;15.90;;;8.57;;
27899;SDS011;15243;50.726;7.080;2023-04-27T04:10:53;18.27;;;8.57;;
27899;SDS011;15243;50.726;7.080;2023-04-27T04:13:19;17.38;;;8.77;;
27899;SDS011;15243;50.726;7.080;2023-04-27T04:15:46;12.10;;;7.82;;
27899;SDS011;15243;50.726;7.080;2023-04-27T04:18:13;15.82;;;8.70;;
27899;SDS011;15243;50.726;7.080;2023-04-27T04:20:40;12.80;;;7.78;;
27899;SDS011;15243;50.726;7.080;2023-04-27T04:23:07;14.40;;;8.75;;
27899;SDS011;15243;50.726;7.080;2023-04-27T04:25:33;10.63;;;8.00;;
27899;SDS011;15243;50.726;7.080;2023-04-27T04:28:00;14.55;;;9.10;;
27899;SDS011;15243;50.726;7.080;2023-04-27T04:30:27;18.83;;;9.68;;
27899;SDS011;15243;50.726;7.080;2023-04-27T04:32:54;16.63;;;8.45;;
27899;SDS011;15243;50.726;7.080;2023-04-27T04:35:21;16.27;;;9.32;;
27899;SDS011;15243;50.726;7.080;2023-04-27T04:37:48;17.55;;;8.50;;
27899;SDS011;15243;50.726;7.080;2023-04-27T04:40:15;14.55;;;8.70;;
27899;SDS011;15243;50.726;7.080;2023-04-27T04:42:42;13.13;;;8.52;;
27899;SDS011;15243;50.726;7.080;2023-04-27T04:45:09;17.00;;;8.35;;
27899;SDS011;15243;50.726;7.080;2023-04-27T04:47:36;15.82;;;9.10;;
27899;SDS011;15243;50.726;7.080;2023-04-27T04:50:05;13.73;;;8.85;;
27899;SDS011;15243;50.726;7.080;2023-04-27T04:52:34;19.42;;;9.32;;
27899;SDS011;15243;50.726;7.080;2023-04-27T04:55:03;16.00;;;9.00;;
27899;SDS011;15243;50.726;7.080;2023-04-27T04:57:31;15.30;;;9.20;;
27899;SDS011;15243;50.726;7.080;2023-04-27T04:59:58;17.40;;;9.57;;
27899;SDS011;15243;50.726;7.080;2023-04-27T05:02:25;18.83;;;9.88;;
27899;SDS011;15243;50.726;7.080;2023-04-27T05:04:52;17.20;;;8.48;;
27899;SDS011;15243;50.726;7.080;2023-04-27T05:07:19;15.27;;;9.05;;
27899;SDS011;15243;50.726;7.080;2023-04-27T05:09:50;16.85;;;8.75;;
27899;SDS011;15243;50.726;7.080;2023-04-27T05:12:17;16.88;;;9.52;;
27899;SDS011;15243;50.726;7.080;2023-04-27T05:14:44;23.38;;;9.43;;
27899;SDS011;15243;50.726;7.080;2023-04-27T05:17:12;18.15;;;9.60;;
27899;SDS011;15243;50.726;7.080;2023-04-27T05:19:39;17.65;;;9.35;;
27899;SDS011;15243;50.726;7.080;2023-04-27T05:22:06;17.63;;;9.15;;
27899;SDS011;15243;50.726;7.080;2023-04-27T05:24:33;22.13;;;10.10;;
27899;SDS011;15243;50.726;7.080;2023-04-27T05:27:00;15.88;;;9.85;;
27899;SDS011;15243;50.726;7.080;2023-04-27T05:29:27;22.10;;;10.00;;
27899;SDS011;15243;50.726;7.080;2023-04-27T05:31:54;17.75;;;9.63;;
27899;SDS011;15243;50.726;7.080;2023-04-27T05:34:22;19.52;;;9.60;;
27899;SDS011;15243;50.726;7.080;2023-04-27T05:36:48;13.60;;;9.65;;
27899;SDS011;15243;50.726;7.080;2023-04-27T05:39:16;16.48;;;9.70;;
27899;SDS011;15243;50.726;7.080;2023-04-27T05:41:42;15.57;;;9.23;;
27899;SDS011;15243;50.726;7.080;2023-04-27T05:44:09;17.35;;;9.63;;
27899;SDS011;15243;50.726;7.080;2023-04-27T05:46:36;14.70;;;9.32;;
27899;SDS011;15243;50.726;7.080;2023-04-27T05:49:04;19.00;;;9.10;;
27899;SDS011;15243;50.726;7.080;2023-04-27T05:51:32;16.95;;;9.38;;
27899;SDS011;15243;50.726;7.080;2023-04-27T05:54:01;21.13;;;9.45;;
27899;SDS011;15243;50.726;7.080;2023-04-27T05:56:28;17.30;;;8.90;;
27899;SDS011;15243;50.726;7.080;2023-04-27T05:58:56;17.48;;;8.73;;
27899;SDS011;15243;50.726;7.080;2023-04-27T06:01:22;19.02;;;9.63;;
27899;SDS011;15243;50.726;7.080;2023-04-27T06:03:50;17.80;;;8.25;;
27899;SDS011;15243;50.726;7.080;2023-04-27T06:06:18;17.23;;;8.95;;
27899;SDS011;15243;50.726;7.080;2023-04-27T06:08:45;19.83;;;9.32;;
27899;SDS011;15243;50.726;7.080;2023-04-27T06:11:12;16.55;;;8.48;;
27899;SDS011;15243;50.726;7.080;2023-04-27T06:13:39;15.60;;;8.80;;
27899;SDS011;15243;50.726;7.080;2023-04-27T06:16:06;15.68;;;8.30;;
27899;SDS011;15243;50.726;7.080;2023-04-27T06:18:33;17.85;;;9.38;;
27899;SDS011;15243;50.726;7.080;2023-04-27T06:21:01;15.40;;;8.57;;
27899;SDS011;15243;50.726;7.080;2023-04-27T06:23:28;17.63;;;8.40;;
27899;SDS011;15243;50.726;7.080;2023-04-27T06:25:55;14.73;;;8.45;;
27899;SDS011;15243;50.726;7.080;2023-04-27T06:28:23;15.45;;;8.00;;
27899;SDS011;15243;50.726;7.080;2023-04-27T06:30:51;21.42;;;8.63;;
27899;SDS011;15243;50.726;7.080;2023-04-27T06:33:19;18.92;;;8.55;;
27899;SDS011;15243;50.726;7.080;2023-04-27T06:35:46;18.48;;;9.32;;
27899;SDS011;15243;50.726;7.080;2023-04-27T06:38:13;14.88;;;8.80;;
27899;SDS011;15243;50.726;7.080;2023-04-27T06:40:40;17.83;;;8.52;;
27899;SDS011;15243;50.726;7.080;2023-04-27T06:43:07;17.30;;;8.60;;
27899;SDS011;15243;50.726;7.080;2023-04-27T06:45:34;16.67;;;8.95;;
27899;SDS011;15243;50.726;7.080;2023-04-27T06:48:01;19.27;;;9.55;;
27899;SDS011;15243;50.726;7.080;2023-04-27T06:50:28;18.00;;;9.05;;
27899;SDS011;15243;50.726;7.080;2023-04-27T06:52:56;18.75;;;10.07;;
27899;SDS011;15243;50.726;7.080;2023-04-27T06:55:23;17.60;;;9.00;;
27899;SDS011;15243;50.726;7.080;2023-04-27T06:57:50;17.50;;;9.65;;
27899;SDS011;15243;50.726;7.080;2023-04-27T07:00:17;20.13;;;9.50;;
27899;SDS011;15243;50.726;7.080;2023-04-27T07:02:46;26.02;;;9.48;;
27899;SDS011;15243;50.726;7.080;2023-04-27T07:05:13;17.02;;;9.43;;
27899;SDS011;15243;50.726;7.080;2023-04-27T07:07:40;17.73;;;8.50;;
27899;SDS011;15243;50.726;7.080;2023-04-27T07:10:07;17.42;;;8.80;;
27899;SDS011;15243;50.726;7.080;2023-04-27T07:12:35;22.27;;;9.27;;
27899;SDS011;15243;50.726;7.080;2023-04-27T07:15:03;22.48;;;9.20;;
27899;SDS011;15243;50.726;7.080;2023-04-27T07:17:31;18.85;;;9.40;;
27899;SDS011;15243;50.726;7.080;2023-04-27T07:19:59;21.33;;;9.68;;
27899;SDS011;15243;50.726;7.080;2023-04-27T07:22:27;15.88;;;9.20;;
27899;SDS011;15243;50.726;7.080;2023-04-27T07:24:54;22.48;;;8.80;;
27899;SDS011;15243;50.726;7.080;2023-04-27T07:27:21;13.25;;;8.60;;
27899;SDS011;15243;50.726;7.080;2023-04-27T07:29:48;18.63;;;9.38;;
27899;SDS011;15243;50.726;7.080;2023-04-27T07:32:15;16.40;;;9.20;;
27899;SDS011;15243;50.726;7.080;2023-04-27T07:34:42;18.85;;;9.15;;
27899;SDS011;15243;50.726;7.080;2023-04-27T07:37:19;18.13;;;9.10;;
27899;SDS011;15243;50.726;7.080;2023-04-27T07:39:47;16.38;;;8.48;;
27899;SDS011;15243;50.726;7.080;2023-04-27T07:42:16;14.95;;;8.40;;
27899;SDS011;15243;50.726;7.080;2023-04-27T07:44:44;19.15;;;8.98;;
27899;SDS011;15243;50.726;7.080;2023-04-27T07:47:10;18.65;;;9.13;;
27899;SDS011;15243;50.726;7.080;2023-04-27T07:49:39;17.73;;;8.60;;
27899;SDS011;15243;50.726;7.080;2023-04-27T07:52:07;22.50;;;9.77;;
27899;SDS011;15243;50.726;7.080;2023-04-27T07:54:34;16.00;;;8.93;;
27899;SDS011;15243;50.726;7.080;2023-04-27T07:57:01;16.13;;;8.63;;
27899;SDS011;15243;50.726;7.080;2023-04-27T07:59:34;17.80;;;8.40;;
27899;SDS011;15243;50.726;7.080;2023-04-27T08:02:01;15.90;;;8.75;;
27899;SDS011;15243;50.726;7.080;2023-04-27T08:04:44;19.85;;;9.75;;
27899;SDS011;15243;50.726;7.080;2023-04-27T08:07:13;17.40;;;9.00;;
27899;SDS011;15243;50.726;7.080;2023-04-27T08:09:41;15.32;;;9.18;;
27899;SDS011;15243;50.726;7.080;2023-04-27T08:12:08;12.95;;;8.48;;
27899;SDS011;15243;50.726;7.080;2023-04-27T08:14:35;18.92;;;9.60;;
27899;SDS011;15243;50.726;7.080;2023-04-27T08:17:03;20.50;;;9.98;;
27899;SDS011;15243;50.726;7.080;2023-04-27T08:19:30;14.98;;;9.13;;
27899;SDS011;15243;50.726;7.080;2023-04-27T08:21:57;16.23;;;8.52;;
27899;SDS011;15243;50.726;7.080;2023-04-27T08:24:24;15.38;;;8.88;;
27899;SDS011;15243;50.726;7.080;2023-04-27T08:26:51;15.70;;;8.25;;
27899;SDS011;15243;50.726;7.080;2023-04-27T08:29:18;19.55;;;9.23;;
27899;SDS011;15243;50.726;7.080;2023-04-27T08:31:54;16.73;;;8.68;;
27899;SDS011;15243;50.726;7.080;2023-04-27T08:34:25;13.25;;;8.00;;
27899;SDS011;15243;50.726;7.080;2023-04-27T08:36:53;15.35;;;7.93;;
27899;SDS011;15243;50.726;7.080;2023-04-27T08:39:20;20.00;;;8.73;;
27899;SDS011;15243;50.726;7.080;2023-04-27T08:41:48;13.85;;;8.10;;
27899;SDS011;15243;50.726;7.080;2023-04-27T08:44:17;15.15;;;8.38;;
27899;SDS011;15243;50.726;7.080;2023-04-27T08:46:44;13.38;;;7.95;;
27899;SDS011;15243;50.726;7.080;2023-04-27T08:49:11;15.57;;;8.57;;
27899;SDS011;15243;50.726;7.080;2023-04-27T08:51:42;16.85;;;8.02;;
27899;SDS011;15243;50.726;7.080;2023-04-27T08:54:09;17.73;;;8.45;;
27899;SDS011;15243;50.726;7.080;2023-04-27T08:56:37;14.25;;;8.13;;
27899;SDS011;15243;50.726;7.080;2023-04-27T08:59:11;20.17;;;9.13;;
27899;SDS011;15243;50.726;7.080;2023-04-27T09:01:44;13.80;;;8.48;;
27899;SDS011;15243;50.726;7.080;2023-04-27T09:04:14;14.70;;;7.80;;
27899;SDS011;15243;50.726;7.080;2023-04-27T09:06:41;15.23;;;8.38;;
27899;SDS011;15243;50.726;7.080;2023-04-27T09:09:08;16.77;;;8.07;;
27899;SDS011;15243;50.726;7.080;2023-04-27T09:11:37;19.55;;;8.50;;
27899;SDS011;15243;50.726;7.080;2023-04-27T09:14:14;14.02;;;7.95;;
27899;SDS011;15243;50.726;7.080;2023-04-27T09:16:56;15.50;;;8.48;;
27899;SDS011;15243;50.726;7.080;2023-04-27T09:19:25;16.25;;;8.40;;
27899;SDS011;15243;50.726;7.080;2023-04-27T09:22:09;20.05;;;8.40;;
27899;SDS011;15243;50.726;7.080;2023-04-27T09:24:36;14.75;;;8.40;;
27899;SDS011;15243;50.726;7.080;2023-04-27T09:27:05;12.85;;;7.95;;
27899;SDS011;15243;50.726;7.080;2023-04-27T09:29:33;19.88;;;8.45;;
27899;SDS011;15243;50.726;7.080;2023-04-27T09:32:13;12.23;;;7.38;;
27899;SDS011;15243;50.726;7.080;2023-04-27T09:34:47;17.88;;;8.82;;
27899;SDS011;15243;50.726;7.080;2023-04-27T09:37:14;19.08;;;8.20;;
27899;SDS011;15243;50.726;7.080;2023-04-27T09:39:41;16.17;;;8.07;;
27899;SDS011;15243;50.726;7.080;2023-04-27T09:42:08;22.33;;;8.80;;
27899;SDS011;15243;50.726;7.080;2023-04-27T09:44:37;14.55;;;8.25;;
27899;SDS011;15243;50.726;7.080;2023-04-27T09:47:04;14.30;;;7.50;;
27899;SDS011;15243;50.726;7.080;2023-04-27T09:49:32;17.67;;;8.18;;
27899;SDS011;15243;50.726;7.080;2023-04-27T09:52:00;15.95;;;8.70;;
27899;SDS011;15243;50.726;7.080;2023-04-27T09:54:28;15.65;;;8.10;;
27899;SDS011;15243;50.726;7.080;2023-04-27T10:02:40;17.27;;;7.90;;
27899;SDS011;15243;50.726;7.080;2023-04-27T10:08:05;18.98;;;7.40;;
27899;SDS011;15243;50.726;7.080;2023-04-27T10:10:41;18.00;;;7.32;;
27899;SDS011;15243;50.726;7.080;2023-04-27T10:13:19;14.02;;;7.65;;
27899;SDS011;15243;50.726;7.080;2023-04-27T10:15:51;20.48;;;8.05;;
27899;SDS011;15243;50.726;7.080;2023-04-27T10:18:30;13.15;;;7.90;;
27899;SDS011;15243;50.726;7.080;2023-04-27T10:21:18;11.13;;;7.53;;
27899;SDS011;15243;50.726;7.080;2023-04-27T10:23:45;13.75;;;6.60;;
27899;SDS011;15243;50.726;7.080;2023-04-27T10:26:23;18.65;;;7.75;;
27899;SDS011;15243;50.726;7.080;2023-04-27T10:29:05;17.20;;;7.88;;
27899;SDS011;15243;50.726;7.080;2023-04-27T10:31:33;15.65;;;7.82;;
27899;SDS011;15243;50.726;7.080;2023-04-27T10:34:07;16.15;;;7.18;;
27899;SDS011;15243;50.726;7.080;2023-04-27T10:36:36;13.18;;;7.20;;
27899;SDS011;15243;50.726;7.080;2023-04-27T10:39:13;18.52;;;8.27;;
27899;SDS011;15243;50.726;7.080;2023-04-27T10:41:49;11.20;;;7.65;;
27899;SDS011;15243;50.726;7.080;2023-04-27T10:44:24;14.10;;;8.27;;
27899;SDS011;15243;50.726;7.080;2023-04-27T10:46:55;14.05;;;7.47;;
27899;SDS011;15243;50.726;7.080;2023-04-27T10:49:28;14.07;;;8.38;;
27899;SDS011;15243;50.726;7.080;2023-04-27T10:51:58;16.85;;;8.48;;
27899;SDS011;15243;50.726;7.080;2023-04-27T10:54:30;14.65;;;8.45;;
27899;SDS011;15243;50.726;7.080;2023-04-27T10:57:07;14.82;;;7.30;;
27899;SDS011;15243;50.726;7.080;2023-04-27T11:02:16;19.70;;;8.38;;
27899;SDS011;15243;50.726;7.080;2023-04-27T11:04:51;12.30;;;7.45;;
27899;SDS011;15243;50.726;7.080;2023-04-27T11:07:23;13.40;;;7.30;;
27899;SDS011;15243;50.726;7.080;2023-04-27T11:09:51;15.57;;;7.88;;
27899;SDS011;15243;50.726;7.080;2023-04-27T11:12:18;12.50;;;7.07;;
27899;SDS011;15243;50.726;7.080;2023-04-27T11:14:45;12.82;;;6.85;;
27899;SDS011;15243;50.726;7.080;2023-04-27T11:17:13;12.90;;;6.95;;
27899;SDS011;15243;50.726;7.080;2023-04-27T11:19:43;17.35;;;7.03;;
27899;SDS011;15243;50.726;7.080;2023-04-27T11:22:12;16.20;;;7.30;;
27899;SDS011;15243;50.726;7.080;2023-04-27T11:24:49;12.68;;;6.82;;
27899;SDS011;15243;50.726;7.080;2023-04-27T11:27:17;12.50;;;6.32;;
27899;SDS011;15243;50.726;7.080;2023-04-27T11:29:47;11.30;;;6.53;;
27899;SDS011;15243;50.726;7.080;2023-04-27T11:32:17;11.10;;;6.53;;
27899;SDS011;15243;50.726;7.080;2023-04-27T11:34:49;10.30;;;6.93;;
27899;SDS011;15243;50.726;7.080;2023-04-27T11:37:22;10.68;;;7.00;;
27899;SDS011;15243;50.726;7.080;2023-04-27T11:39:53;14.45;;;7.32;;
27899;SDS011;15243;50.726;7.080;2023-04-27T11:42:21;10.52;;;6.82;;
27899;SDS011;15243;50.726;7.080;2023-04-27T11:44:51;18.20;;;7.45;;
27899;SDS011;15243;50.726;7.080;2023-04-27T11:47:26;12.02;;;7.68;;
27899;SDS011;15243;50.726;7.080;2023-04-27T11:49:59;14.00;;;7.25;;
27899;SDS011;15243;50.726;7.080;2023-04-27T11:52:27;12.10;;;6.40;;
27899;SDS011;15243;50.726;7.080;2023-04-27T11:54:55;16.80;;;6.80;;
27899;SDS011;15243;50.726;7.080;2023-04-27T11:57:24;19.33;;;7.35;;
27899;SDS011;15243;50.726;7.080;2023-04-27T11:59:55;14.13;;;6.88;;
27899;SDS011;15243;50.726;7.080;2023-04-27T12:02:26;12.48;;;6.75;;
27899;SDS011;15243;50.726;7.080;2023-04-27T12:04:54;14.27;;;6.68;;
27899;SDS011;15243;50.726;7.080;2023-04-27T12:07:21;14.20;;;6.88;;
27899;SDS011;15243;50.726;7.080;2023-04-27T12:09:48;11.45;;;6.57;;
27899;SDS011;15243;50.726;7.080;2023-04-27T12:12:15;12.00;;;6.93;;
27899;SDS011;15243;50.726;7.080;2023-04-27T12:14:48;9.98;;;5.93;;
27899;SDS011;15243;50.726;7.080;2023-04-27T12:17:16;12.15;;;5.47;;
27899;SDS011;15243;50.726;7.080;2023-04-27T12:19:43;14.68;;;6.38;;
27899;SDS011;15243;50.726;7.080;2023-04-27T12:22:10;16.25;;;6.70;;
27899;SDS011;15243;50.726;7.080;2023-04-27T12:24:37;12.30;;;7.03;;
27899;SDS011;15243;50.726;7.080;2023-04-27T12:27:04;10.07;;;6.20;;
27899;SDS011;15243;50.726;7.080;2023-04-27T12:29:33;14.95;;;5.63;;
27899;SDS011;15243;50.726;7.080;2023-04-27T12:32:00;12.85;;;6.05;;
27899;SDS011;15243;50.726;7.080;2023-04-27T12:34:27;11.95;;;6.47;;
27899;SDS011;15243;50.726;7.080;2023-04-27T12:36:53;16.10;;;7.07;;
27899;SDS011;15243;50.726;7.080;2023-04-27T12:39:21;9.70;;;6.35;;
27899;SDS011;15243;50.726;7.080;2023-04-27T12:41:52;10.32;;;6.43;;
27899;SDS011;15243;50.726;7.080;2023-04-27T12:44:19;12.50;;;5.88;;
27899;SDS011;15243;50.726;7.080;2023-04-27T12:46:46;13.10;;;6.10;;
27899;SDS011;15243;50.726;7.080;2023-04-27T12:49:14;12.25;;;5.70;;
27899;SDS011;15243;50.726;7.080;2023-04-27T12:51:41;15.90;;;6.32;;
27899;SDS011;15243;50.726;7.080;2023-04-27T12:54:09;12.90;;;6.03;;
27899;SDS011;15243;50.726;7.080;2023-04-27T12:56:37;14.45;;;6.10;;
27899;SDS011;15243;50.726;7.080;2023-04-27T12:59:04;9.35;;;6.05;;
27899;SDS011;15243;50.726;7.080;2023-04-27T13:01:31;12.88;;;6.68;;
27899;SDS011;15243;50.726;7.080;2023-04-27T13:04:00;13.93;;;6.55;;
27899;SDS011;15243;50.726;7.080;2023-04-27T13:06:29;19.25;;;6.28;;
27899;SDS011;15243;50.726;7.080;2023-04-27T13:08:57;13.48;;;6.68;;
27899;SDS011;15243;50.726;7.080;2023-04-27T13:11:25;16.35;;;6.75;;
27899;SDS011;15243;50.726;7.080;2023-04-27T13:13:52;14.48;;;6.38;;
27899;SDS011;15243;50.726;7.080;2023-04-27T13:16:20;11.85;;;6.07;;
27899;SDS011;15243;50.726;7.080;2023-04-27T13:18:50;13.32;;;6.78;;
27899;SDS011;15243;50.726;7.080;2023-04-27T13:21:19;15.25;;;7.53;;
27899;SDS011;15243;50.726;7.080;2023-04-27T13:23:46;12.57;;;6.25;;
27899;SDS011;15243;50.726;7.080;2023-04-27T13:26:14;19.35;;;7.10;;
27899;SDS011;15243;50.726;7.080;2023-04-27T13:28:41;11.13;;;5.80;;
27899;SDS011;15243;50.726;7.080;2023-04-27T13:31:08;12.27;;;5.88;;
27899;SDS011;15243;50.726;7.080;2023-04-27T13:33:40;11.35;;;5.90;;
27899;SDS011;15243;50.726;7.080;2023-04-27T13:36:08;14.37;;;6.73;;
27899;SDS011;15243;50.726;7.080;2023-04-27T13:38:35;13.05;;;5.57;;
27899;SDS011;15243;50.726;7.080;2023-04-27T13:41:02;10.43;;;5.22;;
27899;SDS011;15243;50.726;7.080;2023-04-27T13:43:30;13.05;;;5.28;;
27899;SDS011;15243;50.726;7.080;2023-04-27T13:46:01;14.10;;;5.40;;
27899;SDS011;15243;50.726;7.080;2023-04-27T13:48:28;11.02;;;6.05;;
27899;SDS011;15243;50.726;7.080;2023-04-27T13:50:56;12.48;;;5.45;;
27899;SDS011;15243;50.726;7.080;2023-04-27T13:53:23;8.50;;;4.78;;
27899;SDS011;15243;50.726;7.080;2023-04-27T13:55:55;10.38;;;5.63;;
27899;SDS011;15243;50.726;7.080;2023-04-27T13:58:23;9.13;;;4.97;;
27899;SDS011;15243;50.726;7.080;2023-04-27T14:00:52;11.20;;;4.90;;
27899;SDS011;15243;50.726;7.080;2023-04-27T14:03:20;9.75;;;4.97;;
27899;SDS011;15243;50.726;7.080;2023-04-27T14:05:48;11.40;;;5.10;;
27899;SDS011;15243;50.726;7.080;2023-04-27T14:08:17;8.20;;;4.68;;
27899;SDS011;15243;50.726;7.080;2023-04-27T14:10:44;12.20;;;5.40;;
27899;SDS011;15243;50.726;7.080;2023-04-27T14:13:11;9.77;;;4.85;;
27899;SDS011;15243;50.726;7.080;2023-04-27T14:15:44;12.98;;;5.50;;
27899;SDS011;15243;50.726;7.080;2023-04-27T14:18:11;9.40;;;4.85;;
27899;SDS011;15243;50.726;7.080;2023-04-27T14:20:40;7.07;;;4.35;;
27899;SDS011;15243;50.726;7.080;2023-04-27T14:23:07;9.23;;;5.10;;
27899;SDS011;15243;50.726;7.080;2023-04-27T14:25:34;8.18;;;3.75;;
27899;SDS011;15243;50.726;7.080;2023-04-27T14:28:02;8.52;;;4.38;;
27899;SDS011;15243;50.726;7.080;2023-04-27T14:30:30;10.10;;;4.65;;
27899;SDS011;15243;50.726;7.080;2023-04-27T14:32:58;10.30;;;4.30;;
27899;SDS011;15243;50.726;7.080;2023-04-27T14:35:26;9.43;;;4.63;;
27899;SDS011;15243;50.726;7.080;2023-04-27T14:37:53;8.90;;;4.47;;
27899;SDS011;15243;50.726;7.080;2023-04-27T14:40:22;9.60;;;4.75;;
27899;SDS011;15243;50.726;7.080;2023-04-27T14:42:49;9.98;;;4.45;;
27899;SDS011;15243;50.726;7.080;2023-04-27T14:45:16;11.98;;;4.47;;
27899;SDS011;15243;50.726;7.080;2023-04-27T14:47:44;9.35;;;4.47;;
27899;SDS011;15243;50.726;7.080;2023-04-27T14:50:11;12.80;;;5.15;;
27899;SDS011;15243;50.726;7.080;2023-04-27T14:52:38;6.18;;;3.90;;